sensor_id;sensor_type;location;lat;lon;timestamp;temperature;humidity
5429;DHT22;2737;52.386;9.980;2023-06-10T00:01:53;17.60;99.90
5429;DHT22;2737;52.386;9.980;2023-06-10T00:04:25;17.50;99.90
5429;DHT22;2737;52.386;9.980;2023-06-10T00:06:52;17.40;99.90
5429;DHT22;2737;52.386;9.980;2023-06-10T00:09:19;17.40;99.90
5429;DHT22;2737;52.386;9.980;2023-06-10T00:11:47;17.30;99.90
5429;DHT22;2737;52.386;9.980;2023-06-10T00:14:15;17.20;99.90
5429;DHT22;2737;52.386;9.980;2023-06-10T00:16:42;17.10;99.90
5429;DHT22;2737;52.386;9.980;2023-06-10T00:19:10;17.10;99.90
5429;DHT22;2737;52.386;9.980;2023-06-10T00:21:39;17.00;99.90
5429;DHT22;2737;52.386;9.980;2023-06-10T00:24:07;16.90;99.90
5429;DHT22;2737;52.386;9.980;2023-06-10T00:26:37;16.80;99.90
5429;DHT22;2737;52.386;9.980;2023-06-10T00:29:04;16.60;99.90
5429;DHT22;2737;52.386;9.980;2023-06-10T00:31:34;16.50;99.90
5429;DHT22;2737;52.386;9.980;2023-06-10T00:34:01;16.40;99.90
5429;DHT22;2737;52.386;9.980;2023-06-10T00:36:29;16.30;99.90
5429;DHT22;2737;52.386;9.980;2023-06-10T00:38:56;16.20;99.90
5429;DHT22;2737;52.386;9.980;2023-06-10T00:41:23;16.20;99.90
5429;DHT22;2737;52.386;9.980;2023-06-10T00:43:52;16.10;99.90
5429;DHT22;2737;52.386;9.980;2023-06-10T00:46:19;16.00;99.90
5429;DHT22;2737;52.386;9.980;2023-06-10T00:48:48;16.00;99.90
5429;DHT22;2737;52.386;9.980;2023-06-10T00:51:16;15.90;99.90
5429;DHT22;2737;52.386;9.980;2023-06-10T00:53:44;15.80;99.90
5429;DHT22;2737;52.386;9.980;2023-06-10T00:56:11;15.90;99.90
5429;DHT22;2737;52.386;9.980;2023-06-10T00:58:39;15.90;99.90
5429;DHT22;2737;52.386;9.980;2023-06-10T01:01:06;15.80;99.90
5429;DHT22;2737;52.386;9.980;2023-06-10T01:03:36;15.80;99.90
5429;DHT22;2737;52.386;9.980;2023-06-10T01:06:12;15.70;99.90
5429;DHT22;2737;52.386;9.980;2023-06-10T01:08:48;15.60;99.90
5429;DHT22;2737;52.386;9.980;2023-06-10T01:11:21;15.50;99.90
5429;DHT22;2737;52.386;9.980;2023-06-10T01:13:50;15.40;99.90
5429;DHT22;2737;52.386;9.980;2023-06-10T01:16:18;15.40;99.90
5429;DHT22;2737;52.386;9.980;2023-06-10T01:18:46;15.30;99.90
5429;DHT22;2737;52.386;9.980;2023-06-10T01:21:19;15.30;99.90
5429;DHT22;2737;52.386;9.980;2023-06-10T01:23:46;15.30;99.90
5429;DHT22;2737;52.386;9.980;2023-06-10T01:26:14;15.20;99.90
5429;DHT22;2737;52.386;9.980;2023-06-10T01:28:46;15.20;99.90
5429;DHT22;2737;52.386;9.980;2023-06-10T01:31:17;15.20;99.90
5429;DHT22;2737;52.386;9.980;2023-06-10T01:33:49;15.10;99.90
5429;DHT22;2737;52.386;9.980;2023-06-10T01:36:20;15.00;99.90
5429;DHT22;2737;52.386;9.980;2023-06-10T01:38:50;15.00;99.90
5429;DHT22;2737;52.386;9.980;2023-06-10T01:41:17;14.90;99.90
5429;DHT22;2737;52.386;9.980;2023-06-10T01:43:45;14.90;99.90
5429;DHT22;2737;52.386;9.980;2023-06-10T01:46:12;14.80;99.90
5429;DHT22;2737;52.386;9.980;2023-06-10T01:48:42;14.80;99.90
5429;DHT22;2737;52.386;9.980;2023-06-10T01:51:09;14.90;99.90
5429;DHT22;2737;52.386;9.980;2023-06-10T01:53:37;14.80;99.90
5429;DHT22;2737;52.386;9.980;2023-06-10T01:56:05;14.80;99.90
5429;DHT22;2737;52.386;9.980;2023-06-10T01:58:32;14.60;99.90
5429;DHT22;2737;52.386;9.980;2023-06-10T02:00:59;14.60;99.90
5429;DHT22;2737;52.386;9.980;2023-06-10T02:03:26;14.50;99.90
5429;DHT22;2737;52.386;9.980;2023-06-10T02:05:53;14.50;99.90
5429;DHT22;2737;52.386;9.980;2023-06-10T02:08:20;14.40;99.90
5429;DHT22;2737;52.386;9.980;2023-06-10T02:10:48;14.30;99.90
5429;DHT22;2737;52.386;9.980;2023-06-10T02:13:15;14.30;99.90
5429;DHT22;2737;52.386;9.980;2023-06-10T02:15:42;14.30;99.90
5429;DHT22;2737;52.386;9.980;2023-06-10T02:18:09;14.30;99.90
5429;DHT22;2737;52.386;9.980;2023-06-10T02:20:37;14.20;99.90
5429;DHT22;2737;52.386;9.980;2023-06-10T02:23:04;14.10;99.90
5429;DHT22;2737;52.386;9.980;2023-06-10T02:25:31;14.00;99.90
5429;DHT22;2737;52.386;9.980;2023-06-10T02:27:59;13.90;99.90
5429;DHT22;2737;52.386;9.980;2023-06-10T02:30:29;13.90;99.90
5429;DHT22;2737;52.386;9.980;2023-06-10T02:32:56;13.90;99.90
5429;DHT22;2737;52.386;9.980;2023-06-10T02:35:24;13.90;99.90
5429;DHT22;2737;52.386;9.980;2023-06-10T02:37:51;13.90;99.90
5429;DHT22;2737;52.386;9.980;2023-06-10T02:40:18;13.80;99.90
5429;DHT22;2737;52.386;9.980;2023-06-10T02:42:45;13.80;99.90
5429;DHT22;2737;52.386;9.980;2023-06-10T02:45:14;13.70;99.90
5429;DHT22;2737;52.386;9.980;2023-06-10T02:47:42;13.60;99.90
5429;DHT22;2737;52.386;9.980;2023-06-10T02:50:09;13.60;99.90
5429;DHT22;2737;52.386;9.980;2023-06-10T02:52:36;13.50;99.90
5429;DHT22;2737;52.386;9.980;2023-06-10T02:55:04;13.50;99.90
5429;DHT22;2737;52.386;9.980;2023-06-10T02:57:32;13.50;99.90
5429;DHT22;2737;52.386;9.980;2023-06-10T02:59:59;13.40;99.90
5429;DHT22;2737;52.386;9.980;2023-06-10T03:02:28;13.40;99.90
5429;DHT22;2737;52.386;9.980;2023-06-10T03:04:55;13.40;99.90
5429;DHT22;2737;52.386;9.980;2023-06-10T03:07:22;13.40;99.90
5429;DHT22;2737;52.386;9.980;2023-06-10T03:09:50;13.40;99.90
5429;DHT22;2737;52.386;9.980;2023-06-10T03:12:17;13.40;99.90
5429;DHT22;2737;52.386;9.980;2023-06-10T03:14:44;13.30;99.90
5429;DHT22;2737;52.386;9.980;2023-06-10T03:17:11;13.30;99.90
5429;DHT22;2737;52.386;9.980;2023-06-10T03:19:39;13.30;99.90
5429;DHT22;2737;52.386;9.980;2023-06-10T03:22:10;13.30;99.90
5429;DHT22;2737;52.386;9.980;2023-06-10T03:24:38;13.30;99.90
5429;DHT22;2737;52.386;9.980;2023-06-10T03:27:07;13.30;99.90
5429;DHT22;2737;52.386;9.980;2023-06-10T03:29:34;13.20;99.90
5429;DHT22;2737;52.386;9.980;2023-06-10T03:32:01;13.20;99.90
5429;DHT22;2737;52.386;9.980;2023-06-10T03:34:28;13.20;99.90
5429;DHT22;2737;52.386;9.980;2023-06-10T03:36:58;13.20;99.90
5429;DHT22;2737;52.386;9.980;2023-06-10T03:39:25;13.10;99.90
5429;DHT22;2737;52.386;9.980;2023-06-10T03:41:54;13.00;99.90
5429;DHT22;2737;52.386;9.980;2023-06-10T03:44:21;13.00;99.90
5429;DHT22;2737;52.386;9.980;2023-06-10T03:46:48;13.10;99.90
5429;DHT22;2737;52.386;9.980;2023-06-10T03:49:15;13.00;99.90
5429;DHT22;2737;52.386;9.980;2023-06-10T03:51:42;13.00;99.90
5429;DHT22;2737;52.386;9.980;2023-06-10T03:54:11;13.10;99.90
5429;DHT22;2737;52.386;9.980;2023-06-10T03:56:38;13.10;99.90
5429;DHT22;2737;52.386;9.980;2023-06-10T03:59:05;13.10;99.90
5429;DHT22;2737;52.386;9.980;2023-06-10T04:01:32;13.10;99.90
5429;DHT22;2737;52.386;9.980;2023-06-10T04:04:00;13.20;99.90
5429;DHT22;2737;52.386;9.980;2023-06-10T04:06:28;13.20;99.90
5429;DHT22;2737;52.386;9.980;2023-06-10T04:08:55;13.10;99.90
5429;DHT22;2737;52.386;9.980;2023-06-10T04:11:24;13.10;99.90
5429;DHT22;2737;52.386;9.980;2023-06-10T04:13:51;13.10;99.90
5429;DHT22;2737;52.386;9.980;2023-06-10T04:16:18;13.20;99.90
5429;DHT22;2737;52.386;9.980;2023-06-10T04:18:46;13.30;99.90
5429;DHT22;2737;52.386;9.980;2023-06-10T04:21:13;13.30;99.90
5429;DHT22;2737;52.386;9.980;2023-06-10T04:23:40;13.30;99.90
5429;DHT22;2737;52.386;9.980;2023-06-10T04:26:07;13.30;99.90
5429;DHT22;2737;52.386;9.980;2023-06-10T04:28:38;13.40;99.90
5429;DHT22;2737;52.386;9.980;2023-06-10T04:31:05;13.40;99.90
5429;DHT22;2737;52.386;9.980;2023-06-10T04:33:32;13.40;99.90
5429;DHT22;2737;52.386;9.980;2023-06-10T04:35:59;13.30;99.90
5429;DHT22;2737;52.386;9.980;2023-06-10T04:38:26;13.40;99.90
5429;DHT22;2737;52.386;9.980;2023-06-10T04:40:53;13.50;99.90
5429;DHT22;2737;52.386;9.980;2023-06-10T04:43:20;13.50;99.90
5429;DHT22;2737;52.386;9.980;2023-06-10T04:45:49;13.50;99.90
5429;DHT22;2737;52.386;9.980;2023-06-10T04:48:16;13.50;99.90
5429;DHT22;2737;52.386;9.980;2023-06-10T04:50:43;13.50;99.90
5429;DHT22;2737;52.386;9.980;2023-06-10T04:53:10;13.60;99.90
5429;DHT22;2737;52.386;9.980;2023-06-10T04:55:37;13.60;99.90
5429;DHT22;2737;52.386;9.980;2023-06-10T04:58:04;13.70;99.90
5429;DHT22;2737;52.386;9.980;2023-06-10T05:00:31;13.80;99.90
5429;DHT22;2737;52.386;9.980;2023-06-10T05:03:00;13.90;99.90
5429;DHT22;2737;52.386;9.980;2023-06-10T05:05:27;13.90;99.90
5429;DHT22;2737;52.386;9.980;2023-06-10T05:07:54;14.00;99.90
5429;DHT22;2737;52.386;9.980;2023-06-10T05:10:21;14.20;99.90
5429;DHT22;2737;52.386;9.980;2023-06-10T05:12:48;14.20;99.90
5429;DHT22;2737;52.386;9.980;2023-06-10T05:15:15;14.30;99.90
5429;DHT22;2737;52.386;9.980;2023-06-10T05:17:42;14.30;99.90
5429;DHT22;2737;52.386;9.980;2023-06-10T05:20:12;14.30;99.90
5429;DHT22;2737;52.386;9.980;2023-06-10T05:22:39;14.10;99.90
5429;DHT22;2737;52.386;9.980;2023-06-10T05:25:07;14.20;99.90
5429;DHT22;2737;52.386;9.980;2023-06-10T05:27:34;14.20;99.90
5429;DHT22;2737;52.386;9.980;2023-06-10T05:30:01;14.30;99.90
5429;DHT22;2737;52.386;9.980;2023-06-10T05:32:30;14.40;99.90
5429;DHT22;2737;52.386;9.980;2023-06-10T05:34:57;14.60;99.90
5429;DHT22;2737;52.386;9.980;2023-06-10T05:37:27;14.60;99.90
5429;DHT22;2737;52.386;9.980;2023-06-10T05:39:54;14.60;99.90
5429;DHT22;2737;52.386;9.980;2023-06-10T05:42:21;14.60;99.90
5429;DHT22;2737;52.386;9.980;2023-06-10T05:44:48;14.70;99.90
5429;DHT22;2737;52.386;9.980;2023-06-10T05:47:15;14.70;99.90
5429;DHT22;2737;52.386;9.980;2023-06-10T05:49:42;14.80;99.90
5429;DHT22;2737;52.386;9.980;2023-06-10T05:52:11;14.90;99.90
5429;DHT22;2737;52.386;9.980;2023-06-10T05:54:39;15.00;99.90
5429;DHT22;2737;52.386;9.980;2023-06-10T05:57:06;15.10;99.90
5429;DHT22;2737;52.386;9.980;2023-06-10T05:59:33;15.10;99.90
5429;DHT22;2737;52.386;9.980;2023-06-10T06:02:00;15.20;99.90
5429;DHT22;2737;52.386;9.980;2023-06-10T06:04:27;15.30;99.90
5429;DHT22;2737;52.386;9.980;2023-06-10T06:06:54;15.30;99.90
5429;DHT22;2737;52.386;9.980;2023-06-10T06:09:21;15.30;99.90
5429;DHT22;2737;52.386;9.980;2023-06-10T06:11:50;15.20;99.90
5429;DHT22;2737;52.386;9.980;2023-06-10T06:14:17;15.30;99.90
5429;DHT22;2737;52.386;9.980;2023-06-10T06:16:44;15.50;99.90
5429;DHT22;2737;52.386;9.980;2023-06-10T06:19:11;15.60;99.90
5429;DHT22;2737;52.386;9.980;2023-06-10T06:21:38;15.70;99.90
5429;DHT22;2737;52.386;9.980;2023-06-10T06:24:05;15.80;99.90
5429;DHT22;2737;52.386;9.980;2023-06-10T06:26:32;15.90;99.90
5429;DHT22;2737;52.386;9.980;2023-06-10T06:29:01;15.80;99.90
5429;DHT22;2737;52.386;9.980;2023-06-10T06:31:28;15.70;99.90
5429;DHT22;2737;52.386;9.980;2023-06-10T06:33:55;15.60;99.90
5429;DHT22;2737;52.386;9.980;2023-06-10T06:36:22;15.70;99.90
5429;DHT22;2737;52.386;9.980;2023-06-10T06:38:49;15.70;99.90
5429;DHT22;2737;52.386;9.980;2023-06-10T06:41:16;15.90;99.90
5429;DHT22;2737;52.386;9.980;2023-06-10T06:43:43;16.00;99.90
5429;DHT22;2737;52.386;9.980;2023-06-10T06:46:11;16.10;99.90
5429;DHT22;2737;52.386;9.980;2023-06-10T06:48:38;16.20;99.90
5429;DHT22;2737;52.386;9.980;2023-06-10T06:51:05;16.30;99.90
5429;DHT22;2737;52.386;9.980;2023-06-10T06:53:32;16.40;99.90
5429;DHT22;2737;52.386;9.980;2023-06-10T06:55:59;16.50;99.90
5429;DHT22;2737;52.386;9.980;2023-06-10T06:58:26;16.50;99.90
5429;DHT22;2737;52.386;9.980;2023-06-10T07:00:53;16.70;99.90
5429;DHT22;2737;52.386;9.980;2023-06-10T07:03:22;17.10;99.90
5429;DHT22;2737;52.386;9.980;2023-06-10T07:05:49;17.30;99.90
5429;DHT22;2737;52.386;9.980;2023-06-10T07:08:16;17.60;99.90
5429;DHT22;2737;52.386;9.980;2023-06-10T07:10:43;17.70;99.90
5429;DHT22;2737;52.386;9.980;2023-06-10T07:13:10;17.90;99.90
5429;DHT22;2737;52.386;9.980;2023-06-10T07:15:38;18.10;99.90
5429;DHT22;2737;52.386;9.980;2023-06-10T07:18:05;18.20;99.90
5429;DHT22;2737;52.386;9.980;2023-06-10T07:20:33;17.30;99.90
5429;DHT22;2737;52.386;9.980;2023-06-10T07:23:00;16.70;99.90
5429;DHT22;2737;52.386;9.980;2023-06-10T07:25:27;16.40;99.90
5429;DHT22;2737;52.386;9.980;2023-06-10T07:27:54;17.10;99.90
5429;DHT22;2737;52.386;9.980;2023-06-10T07:30:21;17.80;99.90
5429;DHT22;2737;52.386;9.980;2023-06-10T07:32:48;18.20;99.90
5429;DHT22;2737;52.386;9.980;2023-06-10T07:35:17;17.20;99.90
5429;DHT22;2737;52.386;9.980;2023-06-10T07:37:45;17.30;99.90
5429;DHT22;2737;52.386;9.980;2023-06-10T07:40:12;18.00;99.90
5429;DHT22;2737;52.386;9.980;2023-06-10T07:42:39;18.50;99.90
5429;DHT22;2737;52.386;9.980;2023-06-10T07:45:07;18.80;99.90
5429;DHT22;2737;52.386;9.980;2023-06-10T07:47:35;19.20;99.90
5429;DHT22;2737;52.386;9.980;2023-06-10T07:50:02;18.20;99.90
5429;DHT22;2737;52.386;9.980;2023-06-10T07:52:29;18.60;99.90
5429;DHT22;2737;52.386;9.980;2023-06-10T07:54:58;19.20;99.90
5429;DHT22;2737;52.386;9.980;2023-06-10T07:57:25;18.50;99.90
5429;DHT22;2737;52.386;9.980;2023-06-10T07:59:52;18.90;99.90
5429;DHT22;2737;52.386;9.980;2023-06-10T08:02:20;19.30;99.90
5429;DHT22;2737;52.386;9.980;2023-06-10T08:04:47;19.80;99.90
5429;DHT22;2737;52.386;9.980;2023-06-10T08:07:14;19.90;99.90
5429;DHT22;2737;52.386;9.980;2023-06-10T08:09:43;19.40;99.90
5429;DHT22;2737;52.386;9.980;2023-06-10T08:12:12;18.70;99.90
5429;DHT22;2737;52.386;9.980;2023-06-10T08:14:39;19.00;99.90
5429;DHT22;2737;52.386;9.980;2023-06-10T08:17:06;19.70;99.90
5429;DHT22;2737;52.386;9.980;2023-06-10T08:19:33;20.20;99.90
5429;DHT22;2737;52.386;9.980;2023-06-10T08:22:00;20.20;99.90
5429;DHT22;2737;52.386;9.980;2023-06-10T08:24:27;20.20;99.90
5429;DHT22;2737;52.386;9.980;2023-06-10T08:26:54;20.70;99.90
5429;DHT22;2737;52.386;9.980;2023-06-10T08:29:23;21.00;99.90
5429;DHT22;2737;52.386;9.980;2023-06-10T08:31:50;21.40;99.90
5429;DHT22;2737;52.386;9.980;2023-06-10T08:34:17;21.70;99.90
5429;DHT22;2737;52.386;9.980;2023-06-10T08:36:44;21.70;99.90
5429;DHT22;2737;52.386;9.980;2023-06-10T08:39:12;21.20;99.90
5429;DHT22;2737;52.386;9.980;2023-06-10T08:41:43;21.50;99.90
5429;DHT22;2737;52.386;9.980;2023-06-10T08:44:16;21.60;99.90
5429;DHT22;2737;52.386;9.980;2023-06-10T08:46:47;21.70;99.90
5429;DHT22;2737;52.386;9.980;2023-06-10T08:49:18;21.50;99.90
5429;DHT22;2737;52.386;9.980;2023-06-10T08:51:50;21.90;99.90
5429;DHT22;2737;52.386;9.980;2023-06-10T08:54:22;21.90;99.90
5429;DHT22;2737;52.386;9.980;2023-06-10T08:56:55;22.10;99.90
5429;DHT22;2737;52.386;9.980;2023-06-10T08:59:22;21.50;99.90
5429;DHT22;2737;52.386;9.980;2023-06-10T09:01:52;21.90;99.90
5429;DHT22;2737;52.386;9.980;2023-06-10T09:04:20;22.20;99.90
5429;DHT22;2737;52.386;9.980;2023-06-10T09:06:49;22.50;99.90
5429;DHT22;2737;52.386;9.980;2023-06-10T09:09:16;22.40;99.90
5429;DHT22;2737;52.386;9.980;2023-06-10T09:11:45;22.20;99.90
5429;DHT22;2737;52.386;9.980;2023-06-10T09:14:12;22.10;99.90
5429;DHT22;2737;52.386;9.980;2023-06-10T09:16:39;22.10;99.90
5429;DHT22;2737;52.386;9.980;2023-06-10T09:19:08;22.50;99.90
5429;DHT22;2737;52.386;9.980;2023-06-10T09:21:36;22.50;99.90
5429;DHT22;2737;52.386;9.980;2023-06-10T09:24:04;22.90;99.90
5429;DHT22;2737;52.386;9.980;2023-06-10T09:26:32;23.20;99.90
5429;DHT22;2737;52.386;9.980;2023-06-10T09:29:03;23.30;99.90
5429;DHT22;2737;52.386;9.980;2023-06-10T09:31:31;23.60;99.90
5429;DHT22;2737;52.386;9.980;2023-06-10T09:34:06;23.60;99.90
5429;DHT22;2737;52.386;9.980;2023-06-10T09:36:35;23.60;99.90
5429;DHT22;2737;52.386;9.980;2023-06-10T09:39:03;23.40;99.90
5429;DHT22;2737;52.386;9.980;2023-06-10T09:41:33;23.50;99.90
5429;DHT22;2737;52.386;9.980;2023-06-10T09:44:02;23.50;99.90
5429;DHT22;2737;52.386;9.980;2023-06-10T09:46:36;23.60;99.90
5429;DHT22;2737;52.386;9.980;2023-06-10T09:49:03;23.90;99.90
5429;DHT22;2737;52.386;9.980;2023-06-10T09:51:29;24.10;99.90
5429;DHT22;2737;52.386;9.980;2023-06-10T09:53:59;24.00;99.90
5429;DHT22;2737;52.386;9.980;2023-06-10T09:56:33;24.00;99.90
5429;DHT22;2737;52.386;9.980;2023-06-10T09:59:01;24.10;99.90
5429;DHT22;2737;52.386;9.980;2023-06-10T10:01:29;24.20;99.90
5429;DHT22;2737;52.386;9.980;2023-06-10T10:03:58;24.20;99.90
5429;DHT22;2737;52.386;9.980;2023-06-10T10:06:25;24.10;99.90
5429;DHT22;2737;52.386;9.980;2023-06-10T10:08:53;23.90;99.90
5429;DHT22;2737;52.386;9.980;2023-06-10T10:11:22;23.80;99.90
5429;DHT22;2737;52.386;9.980;2023-06-10T10:13:51;23.90;99.90
5429;DHT22;2737;52.386;9.980;2023-06-10T10:16:20;23.90;99.90
5429;DHT22;2737;52.386;9.980;2023-06-10T10:18:51;23.80;99.90
5429;DHT22;2737;52.386;9.980;2023-06-10T10:21:23;23.90;99.90
5429;DHT22;2737;52.386;9.980;2023-06-10T10:23:53;24.00;99.90
5429;DHT22;2737;52.386;9.980;2023-06-10T10:26:26;24.10;99.90
5429;DHT22;2737;52.386;9.980;2023-06-10T10:28:58;24.20;99.90
5429;DHT22;2737;52.386;9.980;2023-06-10T10:31:32;24.30;99.90
5429;DHT22;2737;52.386;9.980;2023-06-10T10:34:04;24.20;99.90
5429;DHT22;2737;52.386;9.980;2023-06-10T10:36:32;24.30;99.90
5429;DHT22;2737;52.386;9.980;2023-06-10T10:38:59;24.30;99.90
5429;DHT22;2737;52.386;9.980;2023-06-10T10:41:30;24.20;99.90
5429;DHT22;2737;52.386;9.980;2023-06-10T10:43:58;24.20;99.90
5429;DHT22;2737;52.386;9.980;2023-06-10T10:46:25;24.40;99.90
5429;DHT22;2737;52.386;9.980;2023-06-10T10:48:53;24.60;99.90
5429;DHT22;2737;52.386;9.980;2023-06-10T10:51:22;24.60;99.90
5429;DHT22;2737;52.386;9.980;2023-06-10T10:54:11;24.70;99.90
5429;DHT22;2737;52.386;9.980;2023-06-10T10:57:09;24.90;99.90
5429;DHT22;2737;52.386;9.980;2023-06-10T10:59:54;24.70;99.90
5429;DHT22;2737;52.386;9.980;2023-06-10T11:02:41;24.60;99.90
5429;DHT22;2737;52.386;9.980;2023-06-10T11:05:10;24.60;99.90
5429;DHT22;2737;52.386;9.980;2023-06-10T11:07:37;24.60;99.90
5429;DHT22;2737;52.386;9.980;2023-06-10T11:10:07;24.80;99.90
5429;DHT22;2737;52.386;9.980;2023-06-10T11:12:50;25.00;99.90
5429;DHT22;2737;52.386;9.980;2023-06-10T11:15:19;25.20;99.90
5429;DHT22;2737;52.386;9.980;2023-06-10T11:18:09;25.30;99.90
5429;DHT22;2737;52.386;9.980;2023-06-10T11:20:59;25.30;99.90
5429;DHT22;2737;52.386;9.980;2023-06-10T11:23:38;25.30;99.90
5429;DHT22;2737;52.386;9.980;2023-06-10T11:26:19;25.30;99.90
5429;DHT22;2737;52.386;9.980;2023-06-10T11:29:09;25.40;99.90
5429;DHT22;2737;52.386;9.980;2023-06-10T11:31:41;25.30;99.90
5429;DHT22;2737;52.386;9.980;2023-06-10T11:34:09;25.20;99.90
5429;DHT22;2737;52.386;9.980;2023-06-10T11:36:38;25.40;99.90
5429;DHT22;2737;52.386;9.980;2023-06-10T11:39:08;25.50;99.90
5429;DHT22;2737;52.386;9.980;2023-06-10T11:41:37;25.60;99.90
5429;DHT22;2737;52.386;9.980;2023-06-10T11:44:09;25.70;99.90
5429;DHT22;2737;52.386;9.980;2023-06-10T11:46:40;25.60;99.90
5429;DHT22;2737;52.386;9.980;2023-06-10T11:49:08;25.80;99.90
5429;DHT22;2737;52.386;9.980;2023-06-10T11:51:36;25.80;99.90
5429;DHT22;2737;52.386;9.980;2023-06-10T11:54:05;25.80;99.90
5429;DHT22;2737;52.386;9.980;2023-06-10T11:56:32;25.90;99.90
5429;DHT22;2737;52.386;9.980;2023-06-10T11:59:01;26.00;99.90
5429;DHT22;2737;52.386;9.980;2023-06-10T12:01:32;25.90;99.90
5429;DHT22;2737;52.386;9.980;2023-06-10T12:04:01;26.00;99.90
5429;DHT22;2737;52.386;9.980;2023-06-10T12:06:38;26.10;99.90
5429;DHT22;2737;52.386;9.980;2023-06-10T12:09:06;26.20;99.90
5429;DHT22;2737;52.386;9.980;2023-06-10T12:11:33;26.10;99.90
5429;DHT22;2737;52.386;9.980;2023-06-10T12:14:02;26.20;99.90
5429;DHT22;2737;52.386;9.980;2023-06-10T12:16:31;26.20;99.90
5429;DHT22;2737;52.386;9.980;2023-06-10T12:19:02;26.20;99.90
5429;DHT22;2737;52.386;9.980;2023-06-10T12:21:31;26.30;99.90
5429;DHT22;2737;52.386;9.980;2023-06-10T12:24:06;26.40;99.90
5429;DHT22;2737;52.386;9.980;2023-06-10T12:26:38;26.40;99.90
5429;DHT22;2737;52.386;9.980;2023-06-10T12:29:19;26.40;99.90
5429;DHT22;2737;52.386;9.980;2023-06-10T12:31:55;26.40;99.90
5429;DHT22;2737;52.386;9.980;2023-06-10T12:34:34;26.40;99.90
5429;DHT22;2737;52.386;9.980;2023-06-10T12:37:02;26.60;99.90
5429;DHT22;2737;52.386;9.980;2023-06-10T12:39:30;26.60;99.90
5429;DHT22;2737;52.386;9.980;2023-06-10T12:41:58;26.70;99.90
5429;DHT22;2737;52.386;9.980;2023-06-10T12:44:32;26.70;99.90
5429;DHT22;2737;52.386;9.980;2023-06-10T12:47:07;26.70;99.90
5429;DHT22;2737;52.386;9.980;2023-06-10T12:49:35;26.80;99.90
5429;DHT22;2737;52.386;9.980;2023-06-10T12:52:03;26.90;99.90
5429;DHT22;2737;52.386;9.980;2023-06-10T12:54:30;27.00;99.90
5429;DHT22;2737;52.386;9.980;2023-06-10T12:56:57;27.00;99.90
5429;DHT22;2737;52.386;9.980;2023-06-10T12:59:24;27.00;99.90
5429;DHT22;2737;52.386;9.980;2023-06-10T13:01:51;26.80;99.90
5429;DHT22;2737;52.386;9.980;2023-06-10T13:04:20;26.90;99.90
5429;DHT22;2737;52.386;9.980;2023-06-10T13:06:48;26.90;99.90
5429;DHT22;2737;52.386;9.980;2023-06-10T13:09:16;26.90;99.90
5429;DHT22;2737;52.386;9.980;2023-06-10T13:11:43;27.10;99.90
5429;DHT22;2737;52.386;9.980;2023-06-10T13:14:10;27.20;99.90
5429;DHT22;2737;52.386;9.980;2023-06-10T13:16:38;27.30;99.90
5429;DHT22;2737;52.386;9.980;2023-06-10T13:19:05;27.30;99.90
5429;DHT22;2737;52.386;9.980;2023-06-10T13:21:34;27.20;99.90
5429;DHT22;2737;52.386;9.980;2023-06-10T13:24:02;27.20;99.90
5429;DHT22;2737;52.386;9.980;2023-06-10T13:26:29;27.20;99.90
5429;DHT22;2737;52.386;9.980;2023-06-10T13:28:56;27.30;99.90
5429;DHT22;2737;52.386;9.980;2023-06-10T13:31:24;27.30;99.90
5429;DHT22;2737;52.386;9.980;2023-06-10T13:33:50;27.30;99.90
5429;DHT22;2737;52.386;9.980;2023-06-10T13:36:17;27.20;99.90
5429;DHT22;2737;52.386;9.980;2023-06-10T13:38:46;27.20;99.90
5429;DHT22;2737;52.386;9.980;2023-06-10T13:41:14;27.00;99.90
5429;DHT22;2737;52.386;9.980;2023-06-10T13:43:41;27.10;99.90
5429;DHT22;2737;52.386;9.980;2023-06-10T13:46:08;27.10;99.90
5429;DHT22;2737;52.386;9.980;2023-06-10T13:48:35;27.00;99.90
5429;DHT22;2737;52.386;9.980;2023-06-10T13:51:02;27.00;99.90
5429;DHT22;2737;52.386;9.980;2023-06-10T13:53:29;26.90;99.90
5429;DHT22;2737;52.386;9.980;2023-06-10T13:55:57;26.90;99.90
5429;DHT22;2737;52.386;9.980;2023-06-10T13:58:25;27.00;99.90
5429;DHT22;2737;52.386;9.980;2023-06-10T14:00:52;27.00;99.90
5429;DHT22;2737;52.386;9.980;2023-06-10T14:03:20;27.00;99.90
5429;DHT22;2737;52.386;9.980;2023-06-10T14:05:47;27.20;99.90
5429;DHT22;2737;52.386;9.980;2023-06-10T14:08:14;27.30;99.90
5429;DHT22;2737;52.386;9.980;2023-06-10T14:10:41;27.40;99.90
5429;DHT22;2737;52.386;9.980;2023-06-10T14:13:09;27.30;99.90
5429;DHT22;2737;52.386;9.980;2023-06-10T14:15:36;27.20;99.90
5429;DHT22;2737;52.386;9.980;2023-06-10T14:18:04;27.20;99.90
5429;DHT22;2737;52.386;9.980;2023-06-10T14:20:31;27.20;99.90
5429;DHT22;2737;52.386;9.980;2023-06-10T14:22:58;27.30;99.90
5429;DHT22;2737;52.386;9.980;2023-06-10T14:25:25;27.30;99.90
5429;DHT22;2737;52.386;9.980;2023-06-10T14:27:52;27.40;99.90
5429;DHT22;2737;52.386;9.980;2023-06-10T14:30:21;27.40;99.90
5429;DHT22;2737;52.386;9.980;2023-06-10T14:32:48;27.50;99.90
5429;DHT22;2737;52.386;9.980;2023-06-10T14:35:15;27.40;99.90
5429;DHT22;2737;52.386;9.980;2023-06-10T14:37:42;27.40;99.90
5429;DHT22;2737;52.386;9.980;2023-06-10T14:40:09;27.30;99.90
5429;DHT22;2737;52.386;9.980;2023-06-10T14:42:36;27.30;99.90
5429;DHT22;2737;52.386;9.980;2023-06-10T14:45:05;27.30;99.90
5429;DHT22;2737;52.386;9.980;2023-06-10T14:49:35;27.40;99.90
5429;DHT22;2737;52.386;9.980;2023-06-10T14:52:02;27.40;99.90
5429;DHT22;2737;52.386;9.980;2023-06-10T14:54:29;27.30;99.90
5429;DHT22;2737;52.386;9.980;2023-06-10T14:56:56;27.40;99.90
5429;DHT22;2737;52.386;9.980;2023-06-10T14:59:23;27.40;99.90
5429;DHT22;2737;52.386;9.980;2023-06-10T15:01:50;27.40;99.90
5429;DHT22;2737;52.386;9.980;2023-06-10T15:04:17;27.50;99.90
5429;DHT22;2737;52.386;9.980;2023-06-10T15:06:46;27.50;99.90
5429;DHT22;2737;52.386;9.980;2023-06-10T15:09:14;27.50;99.90
5429;DHT22;2737;52.386;9.980;2023-06-10T15:11:41;27.50;99.90
5429;DHT22;2737;52.386;9.980;2023-06-10T15:14:08;27.50;99.70
5429;DHT22;2737;52.386;9.980;2023-06-10T15:16:35;27.50;99.40
5429;DHT22;2737;52.386;9.980;2023-06-10T15:19:02;27.60;99.60
5429;DHT22;2737;52.386;9.980;2023-06-10T15:21:32;27.60;99.70
5429;DHT22;2737;52.386;9.980;2023-06-10T15:24:00;27.70;99.50
5429;DHT22;2737;52.386;9.980;2023-06-10T15:26:27;27.70;99.20
5429;DHT22;2737;52.386;9.980;2023-06-10T15:28:54;27.60;99.00
5429;DHT22;2737;52.386;9.980;2023-06-10T15:31:21;27.60;99.20
5429;DHT22;2737;52.386;9.980;2023-06-10T15:33:48;27.60;99.70
5429;DHT22;2737;52.386;9.980;2023-06-10T15:36:15;27.50;99.10
5429;DHT22;2737;52.386;9.980;2023-06-10T15:38:42;27.50;98.50
5429;DHT22;2737;52.386;9.980;2023-06-10T15:41:13;27.60;98.60
5429;DHT22;2737;52.386;9.980;2023-06-10T15:43:40;27.60;98.70
5429;DHT22;2737;52.386;9.980;2023-06-10T15:46:07;27.70;98.70
5429;DHT22;2737;52.386;9.980;2023-06-10T15:48:34;27.80;98.20
5429;DHT22;2737;52.386;9.980;2023-06-10T15:51:01;27.80;98.30
5429;DHT22;2737;52.386;9.980;2023-06-10T15:53:30;27.80;98.30
5429;DHT22;2737;52.386;9.980;2023-06-10T15:55:58;27.90;98.40
5429;DHT22;2737;52.386;9.980;2023-06-10T15:58:27;28.00;98.60
5429;DHT22;2737;52.386;9.980;2023-06-10T16:00:55;28.00;98.50
5429;DHT22;2737;52.386;9.980;2023-06-10T16:03:22;28.00;97.70
5429;DHT22;2737;52.386;9.980;2023-06-10T16:05:49;28.10;97.90
5429;DHT22;2737;52.386;9.980;2023-06-10T16:08:17;28.00;97.50
5429;DHT22;2737;52.386;9.980;2023-06-10T16:10:44;28.10;97.90
5429;DHT22;2737;52.386;9.980;2023-06-10T16:13:11;28.00;97.30